Time;durP1;ratioP1;P1;durP2;ratioP2;P2;SDS_P1;SDS_P2;PMS_P1;PMS_P2;Temp;Humidity;BMP_temperature;BMP_pressure;BME280_temperature;BME280_humidity;BME280_pressure;Samples;Min_cycle;Max_cycle;Signal;HPM_P1;HPM_P2
2022/06/29 17:14:16;;;;;;;;;;;;;;;;;;5068903;28;20797;-84
2022/06/29 17:16:42;;;;;;;;;;;;;;;;;;5068196;28;19912;-85
2022/06/29 17:19:08;;;;;;;;;;;;;;;;;;5068814;28;19958;-80
2022/06/29 17:21:34;;;;;;;0.10;0.10;;;;;;;;;;5066881;28;20336;-80
2022/06/29 17:24:00;;;;;;;0.05;0.05;;;;;;;;;;5065778;28;20116;-79
2022/06/29 17:26:28;;;;;;;0.10;0.10;;;;;;;;;;5067059;28;20435;-81
2022/06/29 17:28:54;;;;;;;0.10;0.10;;;;;;;;;;5067421;28;20021;-80
2022/06/29 17:31:20;;;;;;;0.10;0.10;;;;;;;;;;5067348;28;20472;-85
2022/06/29 17:33:46;;;;;;;0.10;0.10;;;;;;;;;;5067955;28;20117;-80
2022/06/29 17:36:15;;;;;;;0.10;0.10;;;;;;;;;;5068179;28;20537;-81
2022/06/29 17:38:44;;;;;;;0.10;0.10;;;;;;;;;;5067365;28;20029;-81
2022/06/29 17:41:10;;;;;;;0.10;0.10;;;;;;;;;;5068061;28;20086;-82
2022/06/29 17:43:37;;;;;;;0.10;0.10;;;;;;;;;;5067327;28;20056;-81
2022/06/29 17:46:04;;;;;;;0.10;0.10;;;;;;;;;;5067937;28;20032;-84
2022/06/29 17:48:30;;;;;;;0.10;0.10;;;;;;;;;;5067734;28;20020;-79
2022/06/29 17:50:56;;;;;;;0.10;0.10;;;;;;;;;;5067625;28;20126;-80
2022/06/29 17:53:22;;;;;;;0.10;0.10;;;;;;;;;;5066160;28;20426;-77
2022/06/29 17:55:50;;;;;;;0.10;0.10;;;;;;;;;;5066684;28;20031;-81
2022/06/29 17:58:16;;;;;;;0.10;0.10;;;;;;;;;;5064890;28;20035;-79
2022/06/29 18:00:41;;;;;;;0.10;0.10;;;;;;;;;;5067084;28;20021;-80
2022/06/29 18:03:08;;;;;;;0.10;0.10;;;;;;;;;;5067279;28;20036;-79
2022/06/29 18:05:34;;;;;;;0.10;0.10;;;;;;;;;;5077235;28;20107;-79
2022/06/29 18:08:01;;;;;;;0.10;0.10;;;;;;;;;;5079395;28;20523;-79
2022/06/29 18:10:27;;;;;;;0.10;0.10;;;;;;;;;;5067519;28;20067;-78
2022/06/29 18:12:53;;;;;;;0.05;0.05;;;;;;;;;;5066775;28;20057;-81
2022/06/29 18:15:19;;;;;;;0.10;0.10;;;;;;;;;;5067118;28;20071;-83
2022/06/29 18:17:45;;;;;;;0.10;0.10;;;;;;;;;;5067032;28;20024;-83
2022/06/29 18:20:12;;;;;;;0.05;0.05;;;;;;;;;;5066381;28;20500;-84
2022/06/29 18:22:38;;;;;;;0.10;0.10;;;;;;;;;;5065541;28;20400;-82
2022/06/29 18:25:04;;;;;;;0.10;0.10;;;;;;;;;;5056083;28;20025;-85
2022/06/29 18:27:30;;;;;;;0.10;0.10;;;;;;;;;;5054402;28;20098;-85
2022/06/29 18:29:56;;;;;;;0.10;0.10;;;;;;;;;;5054252;28;20435;-84
2022/06/29 18:32:22;;;;;;;0.10;0.10;;;;;;;;;;5053781;28;20025;-78
2022/06/29 18:34:49;;;;;;;0.10;0.10;;;;;;;;;;5054939;28;20040;-83
2022/06/29 18:37:15;;;;;;;0.08;0.08;;;;;;;;;;5053795;28;20049;-81
2022/06/29 18:39:44;;;;;;;0.10;0.10;;;;;;;;;;5053124;28;20029;-77
2022/06/29 18:42:10;;;;;;;0.10;0.10;;;;;;;;;;5053676;28;20025;-82
2022/06/29 18:44:36;;;;;;;0.10;0.10;;;;;;;;;;5052078;28;20106;-80
2022/06/29 18:47:03;;;;;;;0.17;0.17;;;;;;;;;;5051928;28;20047;-80
2022/06/29 18:49:28;;;;;;;0.03;0.03;;;;;;;;;;5050227;28;20029;-79
2022/06/29 18:51:55;;;;;;;0.10;0.10;;;;;;;;;;5052024;28;20040;-81
2022/06/29 18:54:21;;;;;;;0.10;0.10;;;;;;;;;;5052275;28;20052;-79
2022/06/29 18:56:47;;;;;;;0.10;0.10;;;;;;;;;;5052390;28;20534;-80
2022/06/29 18:59:13;;;;;;;0.00;0.00;;;;;;;;;;5053383;28;20033;-78
2022/06/29 19:01:39;;;;;;;0.10;0.10;;;;;;;;;;5053062;28;20096;-80
2022/06/29 19:04:05;;;;;;;0.10;0.10;;;;;;;;;;5051467;28;20396;-79
2022/06/29 19:06:31;;;;;;;0.10;0.10;;;;;;;;;;5052851;28;20025;-81
2022/06/29 19:08:59;;;;;;;0.10;0.10;;;;;;;;;;5051944;28;20362;-81
2022/06/29 19:14:09;;;;;;;0.10;0.10;;;;;;;;;;5053095;28;20047;-81
2022/06/29 19:16:35;;;;;;;0.10;0.10;;;;;;;;;;5052835;28;20013;-78
2022/06/29 19:19:01;;;;;;;0.10;0.10;;;;;;;;;;5051521;28;20033;-80
2022/06/29 19:21:27;;;;;;;0.10;0.10;;;;;;;;;;5050371;28;20066;-78
2022/06/29 19:23:53;;;;;;;0.10;0.10;;;;;;;;;;5050218;28;20112;-78
2022/06/29 19:26:21;;;;;;;0.10;0.10;;;;;;;;;;5051555;28;20028;-79
2022/06/29 19:28:47;;;;;;;0.10;0.10;;;;;;;;;;5050930;28;20040;-78
2022/06/29 19:31:13;;;;;;;0.10;0.10;;;;;;;;;;5051423;28;20037;-77
2022/06/29 19:33:39;;;;;;;0.10;0.10;;;;;;;;;;5053189;28;20530;-78
2022/06/29 19:36:05;;;;;;;0.10;0.10;;;;;;;;;;5050155;28;20048;-79
2022/06/29 19:38:32;;;;;;;0.10;0.10;;;;;;;;;;5057947;28;20108;-79
2022/06/29 19:40:58;;;;;;;0.10;0.10;;;;;;;;;;5048874;28;20024;-78
2022/06/29 19:43:24;;;;;;;0.10;0.10;;;;;;;;;;5049450;28;20112;-79
2022/06/29 19:45:50;;;;;;;0.10;0.10;;;;;;;;;;5051696;28;20025;-79
2022/06/29 19:48:16;;;;;;;0.10;0.10;;;;;;;;;;5051010;28;20392;-78
2022/06/29 19:50:42;;;;;;;0.10;0.10;;;;;;;;;;5051955;28;20108;-78
2022/06/29 19:53:08;;;;;;;0.10;0.10;;;;;;;;;;5050544;28;20095;-78
2022/06/29 19:55:34;;;;;;;0.10;0.10;;;;;;;;;;5053727;28;20029;-77
2022/06/29 19:58:00;;;;;;;0.10;0.10;;;;;;;;;;5053427;28;20028;-78
2022/06/29 20:00:26;;;;;;;0.10;0.10;;;;;;;;;;5049885;28;20516;-78
2022/06/29 20:02:52;;;;;;;0.10;0.10;;;;;;;;;;5050194;28;20067;-78
2022/06/29 20:05:18;;;;;;;0.10;0.10;;;;;;;;;;5049663;28;20454;-77
2022/06/29 20:07:44;;;;;;;0.10;0.10;;;;;;;;;;5050196;28;20028;-77
2022/06/29 20:10:12;;;;;;;0.10;0.10;;;;;;;;;;5049186;28;20485;-78
2022/06/29 20:12:38;;;;;;;0.10;0.10;;;;;;;;;;5048821;28;20096;-77
2022/06/29 20:15:04;;;;;;;0.10;0.10;;;;;;;;;;5048736;28;20035;-78
2022/06/29 20:17:30;;;;;;;0.10;0.10;;;;;;;;;;5048584;28;20048;-77
2022/06/29 20:19:56;;;;;;;0.10;0.10;;;;;;;;;;5050104;28;20114;-77
2022/06/29 20:22:22;;;;;;;0.10;0.10;;;;;;;;;;5050034;28;20018;-77
2022/06/29 20:24:48;;;;;;;0.08;0.08;;;;;;;;;;5050085;28;20404;-77
2022/06/29 20:27:14;;;;;;;0.10;0.10;;;;;;;;;;5050005;28;20104;-77
2022/06/29 20:29:40;;;;;;;0.10;0.10;;;;;;;;;;5049296;28;20143;-77
2022/06/29 20:32:06;;;;;;;0.10;0.10;;;;;;;;;;5049525;28;20540;-77
2022/06/29 20:34:33;;;;;;;0.10;0.10;;;;;;;;;;5049431;28;20452;-76
2022/06/29 20:36:59;;;;;;;0.10;0.10;;;;;;;;;;5047511;28;20017;-76
2022/06/29 20:39:25;;;;;;;0.10;0.10;;;;;;;;;;5049701;28;20112;-77
2022/06/29 20:41:51;;;;;;;0.10;0.10;;;;;;;;;;5049683;28;20032;-82
2022/06/29 20:47:02;;;;;;;0.10;0.10;;;;;;;;;;5049645;28;20506;-83
2022/06/29 20:49:28;;;;;;;0.10;0.10;;;;;;;;;;5049725;28;20023;-79
2022/06/29 20:51:54;;;;;;;0.10;0.10;;;;;;;;;;5051205;28;20100;-79
2022/06/29 20:54:20;;;;;;;0.10;0.10;;;;;;;;;;5048729;28;20489;-80
2022/06/29 20:56:46;;;;;;;0.10;0.10;;;;;;;;;;5047267;28;20067;-78
2022/06/29 20:59:12;;;;;;;0.10;0.10;;;;;;;;;;5048670;28;20422;-79
2022/06/29 21:01:38;;;;;;;0.10;0.10;;;;;;;;;;5049520;28;20021;-80
2022/06/29 21:04:04;;;;;;;0.10;0.10;;;;;;;;;;5048938;28;21125;-79
2022/06/29 21:06:33;;;;;;;0.10;0.10;;;;;;;;;;5045043;28;20059;-79
2022/06/29 21:08:59;;;;;;;0.10;0.10;;;;;;;;;;5047968;28;20021;-79
2022/06/29 21:11:28;;;;;;;0.10;0.10;;;;;;;;;;5050295;28;20036;-79
2022/06/29 21:13:54;;;;;;;0.10;0.10;;;;;;;;;;5049429;28;20110;-79
2022/06/29 21:16:20;;;;;;;0.20;0.20;;;;;;;;;;5051370;28;20039;-79
2022/06/29 21:18:46;;;;;;;0.10;0.10;;;;;;;;;;5050827;28;20528;-80
2022/06/29 21:21:15;;;;;;;0.10;0.10;;;;;;;;;;5051092;28;20059;-79
2022/06/29 21:23:41;;;;;;;0.10;0.10;;;;;;;;;;5050281;28;20021;-80
2022/06/29 21:26:07;;;;;;;0.10;0.10;;;;;;;;;;5050813;28;20029;-79
2022/06/29 21:28:33;;;;;;;0.10;0.10;;;;;;;;;;5050774;28;20155;-80
2022/06/29 21:30:59;;;;;;;0.10;0.10;;;;;;;;;;5050916;28;20471;-79
2022/06/29 21:33:25;;;;;;;0.10;0.10;;;;;;;;;;5050320;28;20068;-81
2022/06/29 21:35:51;;;;;;;0.10;0.10;;;;;;;;;;5050281;28;20029;-81
2022/06/29 21:38:17;;;;;;;0.10;0.10;;;;;;;;;;5049182;28;20405;-82
2022/06/29 21:40:43;;;;;;;0.10;0.10;;;;;;;;;;5050103;28;20033;-81
2022/06/29 21:43:09;;;;;;;0.10;0.10;;;;;;;;;;5050761;28;20067;-82
2022/06/29 21:45:35;;;;;;;0.10;0.10;;;;;;;;;;5050540;28;20039;-81
2022/06/29 21:48:01;;;;;;;0.10;0.10;;;;;;;;;;5049442;28;20695;-77
2022/06/29 21:53:11;;;;;;;0.10;0.10;;;;;;;;;;5050363;28;20091;-81
2022/06/29 21:55:37;;;;;;;0.10;0.10;;;;;;;;;;5049158;28;20021;-82
2022/06/29 21:58:03;;;;;;;0.10;0.10;;;;;;;;;;5050803;28;20075;-82
2022/06/29 22:00:31;;;;;;;0.10;0.10;;;;;;;;;;5053230;28;20451;-82
2022/06/29 22:02:57;;;;;;;0.10;0.10;;;;;;;;;;5053553;28;20021;-82
2022/06/29 22:05:23;;;;;;;0.10;0.10;;;;;;;;;;5052868;28;20033;-81
2022/06/29 22:07:49;;;;;;;0.10;0.10;;;;;;;;;;5054530;28;20022;-82
2022/06/29 22:10:15;;;;;;;0.10;0.10;;;;;;;;;;5053928;28;20037;-82
2022/06/29 22:12:41;;;;;;;0.10;0.10;;;;;;;;;;5053695;28;20147;-81
2022/06/29 22:15:07;;;;;;;0.10;0.10;;;;;;;;;;5052829;28;20405;-81
2022/06/29 22:17:33;;;;;;;0.10;0.10;;;;;;;;;;5053906;28;20021;-80
2022/06/29 22:20:01;;;;;;;0.10;0.10;;;;;;;;;;5054023;28;20108;-81
2022/06/29 22:22:27;;;;;;;0.08;0.08;;;;;;;;;;5053816;28;20025;-81
2022/06/29 22:24:53;;;;;;;0.10;0.10;;;;;;;;;;5053675;28;20094;-81
2022/06/29 22:27:19;;;;;;;0.10;0.10;;;;;;;;;;5054253;28;20047;-81
2022/06/29 22:29:46;;;;;;;0.10;0.10;;;;;;;;;;5053639;28;20021;-79
2022/06/29 22:32:12;;;;;;;0.10;0.10;;;;;;;;;;5053803;28;20453;-79
2022/06/29 22:34:38;;;;;;;0.10;0.10;;;;;;;;;;5053495;28;20029;-82
2022/06/29 22:37:04;;;;;;;0.10;0.10;;;;;;;;;;5053741;28;20021;-81
2022/06/29 22:39:30;;;;;;;0.10;0.10;;;;;;;;;;5053107;28;20048;-80
2022/06/29 22:41:56;;;;;;;0.10;0.10;;;;;;;;;;5053606;28;20070;-80
2022/06/29 22:44:23;;;;;;;0.10;0.10;;;;;;;;;;5053366;28;20025;-79
2022/06/29 22:46:50;;;;;;;0.10;0.10;;;;;;;;;;5053370;28;20021;-81
2022/06/29 22:49:17;;;;;;;0.10;0.10;;;;;;;;;;5052138;28;20106;-82
2022/06/29 22:51:43;;;;;;;0.10;0.10;;;;;;;;;;5053057;28;20036;-81
2022/06/29 22:54:09;;;;;;;0.10;0.10;;;;;;;;;;5051720;28;20033;-80
2022/06/29 22:56:36;;;;;;;0.10;0.10;;;;;;;;;;5053165;28;20455;-81
2022/06/29 22:59:02;;;;;;;0.10;0.10;;;;;;;;;;5053344;28;20114;-81
2022/06/29 23:01:28;;;;;;;0.10;0.10;;;;;;;;;;5053043;28;20159;-80
2022/06/29 23:03:54;;;;;;;0.10;0.10;;;;;;;;;;5052682;28;20370;-81
2022/06/29 23:06:20;;;;;;;0.10;0.10;;;;;;;;;;5052579;28;20127;-81
2022/06/29 23:08:46;;;;;;;0.10;0.10;;;;;;;;;;5052720;28;20047;-81
2022/06/29 23:13:57;;;;;;;0.10;0.10;;;;;;;;;;5052867;28;20052;-80
2022/06/29 23:16:23;;;;;;;0.10;0.10;;;;;;;;;;5052698;28;20076;-80
2022/06/29 23:18:49;;;;;;;0.10;0.10;;;;;;;;;;5053311;28;20025;-81
2022/06/29 23:21:15;;;;;;;0.10;0.10;;;;;;;;;;5052897;28;20029;-81
2022/06/29 23:23:41;;;;;;;0.10;0.10;;;;;;;;;;5052305;28;20099;-81
2022/06/29 23:26:07;;;;;;;0.10;0.10;;;;;;;;;;5052821;28;20071;-81
2022/06/29 23:28:33;;;;;;;0.10;0.10;;;;;;;;;;5052176;28;20469;-80
2022/06/29 23:30:59;;;;;;;0.10;0.10;;;;;;;;;;5052684;28;20025;-81
2022/06/29 23:33:28;;;;;;;0.10;0.10;;;;;;;;;;5052376;28;20444;-81
2022/06/29 23:35:54;;;;;;;0.10;0.10;;;;;;;;;;5051321;28;20021;-81
2022/06/29 23:38:20;;;;;;;0.10;0.10;;;;;;;;;;5051573;28;20037;-81
2022/06/29 23:40:46;;;;;;;0.10;0.10;;;;;;;;;;5052290;28;20484;-81
2022/06/29 23:43:12;;;;;;;0.10;0.10;;;;;;;;;;5051990;28;20033;-82
2022/06/29 23:45:38;;;;;;;0.10;0.10;;;;;;;;;;5050888;28;20102;-82
2022/06/29 23:48:04;;;;;;;0.08;0.08;;;;;;;;;;5051106;28;20096;-82
2022/06/29 23:50:31;;;;;;;0.10;0.10;;;;;;;;;;5052109;28;20052;-82
2022/06/29 23:52:57;;;;;;;0.10;0.10;;;;;;;;;;5052192;28;20118;-82
2022/06/29 23:55:23;;;;;;;0.10;0.10;;;;;;;;;;5052083;28;20028;-79
2022/06/29 23:57:49;;;;;;;0.10;0.10;;;;;;;;;;5051980;28;20029;-81
